LKK weather

Kulik Lake Airport
Kulik Lake, Alaska, United States

Public forecast

Using degrees Fahrenheit for public forecast. Weather courtesy of forecast.io.

METAR (pilot weather report)

Closest report is Igiugig Airport, 31.6 nm (58.5 km) NW. Retrieved 2019/07/24 00:56 UTC (33 minutes ago):

PAIG 240056Z AUTO 21006KT 10SM BKN080 23/12 A2986 RMK AO2 SLP122 T02330122 $

TAF (pilot weather forecast)

Forecast is more than 12 hours old.

Closest forecast is Iliamna Airport, 46.8 nm (86.7 km) N. Retrieved 2019/07/23 00:36 UTC (1 day ago):

TAF PAIL 232334Z 2400/2424 20007KT P6SM SKC FM241300 18005KT 6SM -RA BR OVC025 FM241500 18005KT 4SM -RA BR OVC015